sensor_id;sensor_type;location;lat;lon;timestamp;P1;durP1;ratioP1;P2;durP2;ratioP2
33270;SDS011;53180;51.344;6.152;2022-09-09T00:02:18;1.40;;;1.30;;
33270;SDS011;53180;51.344;6.152;2022-09-09T00:04:54;1.27;;;1.17;;
33270;SDS011;53180;51.344;6.152;2022-09-09T00:07:32;1.33;;;1.23;;
33270;SDS011;53180;51.344;6.152;2022-09-09T00:10:13;1.38;;;1.15;;
33270;SDS011;53180;51.344;6.152;2022-09-09T00:12:51;1.45;;;1.35;;
33270;SDS011;53180;51.344;6.152;2022-09-09T00:15:27;2.63;;;1.20;;
33270;SDS011;53180;51.344;6.152;2022-09-09T00:18:03;1.60;;;1.50;;
33270;SDS011;53180;51.344;6.152;2022-09-09T00:23:19;1.73;;;1.40;;
33270;SDS011;53180;51.344;6.152;2022-09-09T00:25:55;3.92;;;1.77;;
33270;SDS011;53180;51.344;6.152;2022-09-09T00:28:31;1.58;;;1.48;;
33270;SDS011;53180;51.344;6.152;2022-09-09T00:31:09;1.98;;;1.73;;
33270;SDS011;53180;51.344;6.152;2022-09-09T00:33:41;2.67;;;1.77;;
33270;SDS011;53180;51.344;6.152;2022-09-09T00:36:13;1.52;;;1.42;;
33270;SDS011;53180;51.344;6.152;2022-09-09T00:38:47;1.70;;;1.60;;
33270;SDS011;53180;51.344;6.152;2022-09-09T00:41:21;1.75;;;1.65;;
33270;SDS011;53180;51.344;6.152;2022-09-09T00:44:00;2.03;;;1.80;;
33270;SDS011;53180;51.344;6.152;2022-09-09T00:49:45;2.58;;;1.90;;
33270;SDS011;53180;51.344;6.152;2022-09-09T00:52:32;1.95;;;1.73;;
33270;SDS011;53180;51.344;6.152;2022-09-09T00:55:11;1.65;;;1.55;;
33270;SDS011;53180;51.344;6.152;2022-09-09T00:57:45;2.20;;;2.00;;
33270;SDS011;53180;51.344;6.152;2022-09-09T01:00:19;2.40;;;1.63;;
33270;SDS011;53180;51.344;6.152;2022-09-09T01:03:03;1.83;;;1.70;;
33270;SDS011;53180;51.344;6.152;2022-09-09T01:06:00;1.65;;;1.55;;
33270;SDS011;53180;51.344;6.152;2022-09-09T01:11:52;1.48;;;1.38;;
33270;SDS011;53180;51.344;6.152;2022-09-09T01:14:30;1.52;;;1.40;;
33270;SDS011;53180;51.344;6.152;2022-09-09T01:17:09;6.03;;;1.45;;
33270;SDS011;53180;51.344;6.152;2022-09-09T01:19:49;1.17;;;1.17;;
33270;SDS011;53180;51.344;6.152;2022-09-09T01:22:34;3.35;;;1.70;;
33270;SDS011;53180;51.344;6.152;2022-09-09T01:25:18;1.60;;;1.50;;
33270;SDS011;53180;51.344;6.152;2022-09-09T01:27:56;1.70;;;1.60;;
33270;SDS011;53180;51.344;6.152;2022-09-09T01:30:28;1.42;;;1.33;;
33270;SDS011;53180;51.344;6.152;2022-09-09T01:32:57;1.55;;;1.45;;
33270;SDS011;53180;51.344;6.152;2022-09-09T01:35:31;2.42;;;1.52;;
33270;SDS011;53180;51.344;6.152;2022-09-09T01:38:06;4.20;;;1.45;;
33270;SDS011;53180;51.344;6.152;2022-09-09T01:40:35;2.65;;;1.42;;
33270;SDS011;53180;51.344;6.152;2022-09-09T01:43:05;1.27;;;1.20;;
33270;SDS011;53180;51.344;6.152;2022-09-09T01:45:34;1.70;;;1.60;;
33270;SDS011;53180;51.344;6.152;2022-09-09T01:48:03;1.20;;;1.10;;
33270;SDS011;53180;51.344;6.152;2022-09-09T01:50:31;1.20;;;1.20;;
33270;SDS011;53180;51.344;6.152;2022-09-09T01:53:00;5.57;;;1.30;;
33270;SDS011;53180;51.344;6.152;2022-09-09T01:55:30;1.58;;;1.48;;
33270;SDS011;53180;51.344;6.152;2022-09-09T01:58:08;1.27;;;1.17;;
33270;SDS011;53180;51.344;6.152;2022-09-09T02:00:50;1.58;;;1.35;;
33270;SDS011;53180;51.344;6.152;2022-09-09T02:03:26;1.20;;;1.15;;
33270;SDS011;53180;51.344;6.152;2022-09-09T02:05:59;1.42;;;1.30;;
33270;SDS011;53180;51.344;6.152;2022-09-09T02:08:37;1.15;;;1.05;;
33270;SDS011;53180;51.344;6.152;2022-09-09T02:11:13;1.50;;;1.40;;
33270;SDS011;53180;51.344;6.152;2022-09-09T02:16:16;1.10;;;1.10;;
33270;SDS011;53180;51.344;6.152;2022-09-09T02:18:51;1.52;;;1.38;;
33270;SDS011;53180;51.344;6.152;2022-09-09T02:21:23;1.30;;;1.20;;
33270;SDS011;53180;51.344;6.152;2022-09-09T02:26:24;1.40;;;1.30;;
33270;SDS011;53180;51.344;6.152;2022-09-09T02:28:57;1.38;;;1.27;;
33270;SDS011;53180;51.344;6.152;2022-09-09T02:31:29;2.38;;;1.30;;
33270;SDS011;53180;51.344;6.152;2022-09-09T02:34:01;1.50;;;1.40;;
33270;SDS011;53180;51.344;6.152;2022-09-09T02:36:34;2.10;;;1.48;;
33270;SDS011;53180;51.344;6.152;2022-09-09T02:39:06;1.40;;;1.30;;
33270;SDS011;53180;51.344;6.152;2022-09-09T02:41:37;1.38;;;1.27;;
33270;SDS011;53180;51.344;6.152;2022-09-09T02:44:11;1.52;;;1.42;;
33270;SDS011;53180;51.344;6.152;2022-09-09T02:46:51;1.23;;;1.20;;
33270;SDS011;53180;51.344;6.152;2022-09-09T02:49:37;1.90;;;1.38;;
33270;SDS011;53180;51.344;6.152;2022-09-09T02:52:16;1.50;;;1.40;;
33270;SDS011;53180;51.344;6.152;2022-09-09T02:54:49;3.10;;;1.60;;
33270;SDS011;53180;51.344;6.152;2022-09-09T02:57:23;1.80;;;1.60;;
33270;SDS011;53180;51.344;6.152;2022-09-09T02:59:58;1.70;;;1.60;;
33270;SDS011;53180;51.344;6.152;2022-09-09T03:02:27;3.17;;;1.50;;
33270;SDS011;53180;51.344;6.152;2022-09-09T03:04:56;1.95;;;1.80;;
33270;SDS011;53180;51.344;6.152;2022-09-09T03:07:25;1.42;;;1.33;;
33270;SDS011;53180;51.344;6.152;2022-09-09T03:09:53;1.63;;;1.50;;
33270;SDS011;53180;51.344;6.152;2022-09-09T03:12:22;1.60;;;1.50;;
33270;SDS011;53180;51.344;6.152;2022-09-09T03:14:50;1.40;;;1.30;;
33270;SDS011;53180;51.344;6.152;2022-09-09T03:17:20;1.48;;;1.38;;
33270;SDS011;53180;51.344;6.152;2022-09-09T03:19:48;1.42;;;1.33;;
33270;SDS011;53180;51.344;6.152;2022-09-09T03:22:18;1.65;;;1.55;;
33270;SDS011;53180;51.344;6.152;2022-09-09T03:24:47;3.20;;;1.50;;
33270;SDS011;53180;51.344;6.152;2022-09-09T03:27:15;5.93;;;1.60;;
33270;SDS011;53180;51.344;6.152;2022-09-09T03:29:45;2.15;;;1.48;;
33270;SDS011;53180;51.344;6.152;2022-09-09T03:32:17;1.48;;;1.38;;
33270;SDS011;53180;51.344;6.152;2022-09-09T03:34:49;1.58;;;1.48;;
33270;SDS011;53180;51.344;6.152;2022-09-09T03:37:18;1.50;;;1.40;;
33270;SDS011;53180;51.344;6.152;2022-09-09T03:39:47;2.95;;;1.50;;
33270;SDS011;53180;51.344;6.152;2022-09-09T03:42:15;1.15;;;1.15;;
33270;SDS011;53180;51.344;6.152;2022-09-09T03:44:45;1.40;;;1.30;;
33270;SDS011;53180;51.344;6.152;2022-09-09T03:47:16;5.38;;;1.45;;
33270;SDS011;53180;51.344;6.152;2022-09-09T03:49:47;1.50;;;1.38;;
33270;SDS011;53180;51.344;6.152;2022-09-09T03:52:15;2.17;;;1.35;;
33270;SDS011;53180;51.344;6.152;2022-09-09T03:54:49;3.28;;;1.40;;
33270;SDS011;53180;51.344;6.152;2022-09-09T03:57:17;3.42;;;1.40;;
33270;SDS011;53180;51.344;6.152;2022-09-09T03:59:45;1.45;;;1.35;;
33270;SDS011;53180;51.344;6.152;2022-09-09T04:02:14;1.48;;;1.38;;
33270;SDS011;53180;51.344;6.152;2022-09-09T04:04:42;1.33;;;1.23;;
33270;SDS011;53180;51.344;6.152;2022-09-09T04:07:12;2.45;;;1.40;;
33270;SDS011;53180;51.344;6.152;2022-09-09T04:09:42;4.78;;;1.48;;
33270;SDS011;53180;51.344;6.152;2022-09-09T04:12:10;1.30;;;1.20;;
33270;SDS011;53180;51.344;6.152;2022-09-09T04:14:39;1.20;;;1.10;;
33270;SDS011;53180;51.344;6.152;2022-09-09T04:17:08;1.30;;;1.20;;
33270;SDS011;53180;51.344;6.152;2022-09-09T04:19:36;1.33;;;1.23;;
33270;SDS011;53180;51.344;6.152;2022-09-09T04:22:04;2.85;;;1.30;;
33270;SDS011;53180;51.344;6.152;2022-09-09T04:24:34;1.60;;;1.30;;
33270;SDS011;53180;51.344;6.152;2022-09-09T04:27:02;1.30;;;1.20;;
33270;SDS011;53180;51.344;6.152;2022-09-09T04:29:31;2.38;;;1.40;;
33270;SDS011;53180;51.344;6.152;2022-09-09T04:31:59;1.83;;;1.20;;
33270;SDS011;53180;51.344;6.152;2022-09-09T04:34:28;2.20;;;1.65;;
33270;SDS011;53180;51.344;6.152;2022-09-09T04:36:57;2.03;;;1.23;;
33270;SDS011;53180;51.344;6.152;2022-09-09T04:39:26;3.33;;;1.83;;
33270;SDS011;53180;51.344;6.152;2022-09-09T04:41:56;1.55;;;1.13;;
33270;SDS011;53180;51.344;6.152;2022-09-09T04:44:25;1.42;;;1.33;;
33270;SDS011;53180;51.344;6.152;2022-09-09T04:46:53;1.63;;;1.10;;
33270;SDS011;53180;51.344;6.152;2022-09-09T04:49:22;1.67;;;1.35;;
33270;SDS011;53180;51.344;6.152;2022-09-09T04:51:50;1.25;;;1.15;;
33270;SDS011;53180;51.344;6.152;2022-09-09T04:54:19;1.00;;;1.00;;
33270;SDS011;53180;51.344;6.152;2022-09-09T04:56:47;3.78;;;1.30;;
33270;SDS011;53180;51.344;6.152;2022-09-09T04:59:19;1.40;;;1.10;;
33270;SDS011;53180;51.344;6.152;2022-09-09T05:01:48;1.00;;;0.90;;
33270;SDS011;53180;51.344;6.152;2022-09-09T05:04:16;1.08;;;1.02;;
33270;SDS011;53180;51.344;6.152;2022-09-09T05:06:45;1.20;;;1.10;;
33270;SDS011;53180;51.344;6.152;2022-09-09T05:09:14;2.00;;;1.10;;
33270;SDS011;53180;51.344;6.152;2022-09-09T05:11:43;9.27;;;1.08;;
33270;SDS011;53180;51.344;6.152;2022-09-09T05:14:11;1.15;;;1.02;;
33270;SDS011;53180;51.344;6.152;2022-09-09T05:16:42;5.88;;;1.08;;
33270;SDS011;53180;51.344;6.152;2022-09-09T05:19:13;1.42;;;1.13;;
33270;SDS011;53180;51.344;6.152;2022-09-09T05:21:41;1.13;;;1.02;;
33270;SDS011;53180;51.344;6.152;2022-09-09T05:24:10;3.38;;;1.20;;
33270;SDS011;53180;51.344;6.152;2022-09-09T05:26:38;2.28;;;1.20;;
33270;SDS011;53180;51.344;6.152;2022-09-09T05:29:06;1.30;;;1.05;;
33270;SDS011;53180;51.344;6.152;2022-09-09T05:31:35;1.48;;;1.13;;
33270;SDS011;53180;51.344;6.152;2022-09-09T05:34:05;1.10;;;1.00;;
33270;SDS011;53180;51.344;6.152;2022-09-09T05:36:33;2.80;;;1.20;;
33270;SDS011;53180;51.344;6.152;2022-09-09T05:39:02;3.85;;;1.75;;
33270;SDS011;53180;51.344;6.152;2022-09-09T05:41:30;1.00;;;0.90;;
33270;SDS011;53180;51.344;6.152;2022-09-09T05:43:59;1.05;;;0.95;;
33270;SDS011;53180;51.344;6.152;2022-09-09T05:46:27;1.85;;;1.02;;
33270;SDS011;53180;51.344;6.152;2022-09-09T05:48:56;1.27;;;1.00;;
33270;SDS011;53180;51.344;6.152;2022-09-09T05:51:26;1.65;;;0.93;;
33270;SDS011;53180;51.344;6.152;2022-09-09T05:53:56;2.70;;;1.15;;
33270;SDS011;53180;51.344;6.152;2022-09-09T05:56:26;2.60;;;1.00;;
33270;SDS011;53180;51.344;6.152;2022-09-09T05:58:56;1.13;;;1.00;;
33270;SDS011;53180;51.344;6.152;2022-09-09T06:01:26;2.75;;;1.15;;
33270;SDS011;53180;51.344;6.152;2022-09-09T06:03:57;1.05;;;1.00;;
33270;SDS011;53180;51.344;6.152;2022-09-09T06:06:30;6.95;;;1.10;;
33270;SDS011;53180;51.344;6.152;2022-09-09T06:09:03;1.30;;;1.08;;
33270;SDS011;53180;51.344;6.152;2022-09-09T06:11:36;3.60;;;1.05;;
33270;SDS011;53180;51.344;6.152;2022-09-09T06:14:06;1.97;;;1.10;;
33270;SDS011;53180;51.344;6.152;2022-09-09T06:16:36;2.78;;;1.17;;
33270;SDS011;53180;51.344;6.152;2022-09-09T06:19:05;2.15;;;1.00;;
33270;SDS011;53180;51.344;6.152;2022-09-09T06:21:35;1.70;;;1.20;;
33270;SDS011;53180;51.344;6.152;2022-09-09T06:24:04;4.07;;;1.40;;
33270;SDS011;53180;51.344;6.152;2022-09-09T06:26:35;5.00;;;1.10;;
33270;SDS011;53180;51.344;6.152;2022-09-09T06:31:35;1.55;;;1.05;;
33270;SDS011;53180;51.344;6.152;2022-09-09T06:34:04;4.00;;;0.90;;
33270;SDS011;53180;51.344;6.152;2022-09-09T06:36:36;1.67;;;0.80;;
33270;SDS011;53180;51.344;6.152;2022-09-09T06:39:06;4.38;;;0.90;;
33270;SDS011;53180;51.344;6.152;2022-09-09T06:41:40;2.33;;;1.00;;
33270;SDS011;53180;51.344;6.152;2022-09-09T06:44:09;2.25;;;1.00;;
33270;SDS011;53180;51.344;6.152;2022-09-09T06:46:39;1.60;;;1.25;;
33270;SDS011;53180;51.344;6.152;2022-09-09T06:49:07;1.77;;;1.13;;
33270;SDS011;53180;51.344;6.152;2022-09-09T06:51:37;2.55;;;1.25;;
33270;SDS011;53180;51.344;6.152;2022-09-09T06:54:09;0.85;;;0.82;;
33270;SDS011;53180;51.344;6.152;2022-09-09T06:56:39;1.00;;;0.85;;
33270;SDS011;53180;51.344;6.152;2022-09-09T06:59:09;3.47;;;1.10;;
33270;SDS011;53180;51.344;6.152;2022-09-09T07:01:39;1.75;;;1.17;;
33270;SDS011;53180;51.344;6.152;2022-09-09T07:06:41;4.15;;;1.40;;
33270;SDS011;53180;51.344;6.152;2022-09-09T07:09:12;0.93;;;0.80;;
33270;SDS011;53180;51.344;6.152;2022-09-09T07:11:43;3.53;;;1.23;;
33270;SDS011;53180;51.344;6.152;2022-09-09T07:14:13;2.58;;;1.10;;
33270;SDS011;53180;51.344;6.152;2022-09-09T07:16:43;1.55;;;1.00;;
33270;SDS011;53180;51.344;6.152;2022-09-09T07:19:13;2.42;;;1.25;;
33270;SDS011;53180;51.344;6.152;2022-09-09T07:21:43;2.72;;;1.10;;
33270;SDS011;53180;51.344;6.152;2022-09-09T07:24:12;0.88;;;0.80;;
33270;SDS011;53180;51.344;6.152;2022-09-09T07:26:41;1.70;;;0.90;;
33270;SDS011;53180;51.344;6.152;2022-09-09T07:29:11;5.22;;;1.02;;
33270;SDS011;53180;51.344;6.152;2022-09-09T07:31:45;1.75;;;1.08;;
33270;SDS011;53180;51.344;6.152;2022-09-09T07:34:14;1.20;;;0.77;;
33270;SDS011;53180;51.344;6.152;2022-09-09T07:36:44;2.90;;;1.10;;
33270;SDS011;53180;51.344;6.152;2022-09-09T07:39:13;2.40;;;0.80;;
33270;SDS011;53180;51.344;6.152;2022-09-09T07:41:44;0.68;;;0.60;;
33270;SDS011;53180;51.344;6.152;2022-09-09T07:44:15;4.22;;;1.13;;
33270;SDS011;53180;51.344;6.152;2022-09-09T07:46:47;1.98;;;0.90;;
33270;SDS011;53180;51.344;6.152;2022-09-09T07:49:16;2.90;;;0.80;;
33270;SDS011;53180;51.344;6.152;2022-09-09T07:51:55;0.82;;;0.63;;
33270;SDS011;53180;51.344;6.152;2022-09-09T07:54:24;6.37;;;1.13;;
33270;SDS011;53180;51.344;6.152;2022-09-09T07:56:52;0.70;;;0.70;;
33270;SDS011;53180;51.344;6.152;2022-09-09T07:59:20;1.13;;;0.80;;
33270;SDS011;53180;51.344;6.152;2022-09-09T08:01:52;3.33;;;0.93;;
33270;SDS011;53180;51.344;6.152;2022-09-09T08:04:22;1.95;;;0.57;;
33270;SDS011;53180;51.344;6.152;2022-09-09T08:06:52;3.15;;;0.95;;
33270;SDS011;53180;51.344;6.152;2022-09-09T08:09:25;3.13;;;0.80;;
33270;SDS011;53180;51.344;6.152;2022-09-09T08:11:55;1.45;;;0.80;;
33270;SDS011;53180;51.344;6.152;2022-09-09T08:14:24;2.17;;;0.80;;
33270;SDS011;53180;51.344;6.152;2022-09-09T08:16:53;2.53;;;1.08;;
33270;SDS011;53180;51.344;6.152;2022-09-09T08:19:23;2.93;;;0.67;;
33270;SDS011;53180;51.344;6.152;2022-09-09T08:21:51;4.50;;;0.90;;
33270;SDS011;53180;51.344;6.152;2022-09-09T08:24:21;3.30;;;0.80;;
33270;SDS011;53180;51.344;6.152;2022-09-09T08:26:50;2.42;;;0.80;;
33270;SDS011;53180;51.344;6.152;2022-09-09T08:29:18;3.60;;;0.82;;
33270;SDS011;53180;51.344;6.152;2022-09-09T08:31:48;2.63;;;0.60;;
33270;SDS011;53180;51.344;6.152;2022-09-09T08:34:19;2.88;;;1.00;;
33270;SDS011;53180;51.344;6.152;2022-09-09T08:36:48;3.63;;;0.90;;
33270;SDS011;53180;51.344;6.152;2022-09-09T08:39:18;1.42;;;0.80;;
33270;SDS011;53180;51.344;6.152;2022-09-09T08:44:53;1.50;;;0.77;;
33270;SDS011;53180;51.344;6.152;2022-09-09T08:47:35;4.63;;;0.90;;
33270;SDS011;53180;51.344;6.152;2022-09-09T08:50:16;3.20;;;0.68;;
33270;SDS011;53180;51.344;6.152;2022-09-09T08:52:52;8.02;;;0.88;;
33270;SDS011;53180;51.344;6.152;2022-09-09T08:55:29;2.35;;;0.70;;
33270;SDS011;53180;51.344;6.152;2022-09-09T08:58:11;1.35;;;0.80;;
33270;SDS011;53180;51.344;6.152;2022-09-09T09:00:45;2.67;;;0.90;;
33270;SDS011;53180;51.344;6.152;2022-09-09T09:03:40;1.23;;;0.65;;
33270;SDS011;53180;51.344;6.152;2022-09-09T09:06:24;4.93;;;0.90;;
33270;SDS011;53180;51.344;6.152;2022-09-09T09:09:08;3.03;;;0.80;;
33270;SDS011;53180;51.344;6.152;2022-09-09T09:11:47;4.03;;;0.80;;
33270;SDS011;53180;51.344;6.152;2022-09-09T09:14:21;2.70;;;0.82;;
33270;SDS011;53180;51.344;6.152;2022-09-09T09:16:52;1.48;;;0.60;;
33270;SDS011;53180;51.344;6.152;2022-09-09T09:19:25;2.92;;;0.63;;
33270;SDS011;53180;51.344;6.152;2022-09-09T09:21:58;3.65;;;0.80;;
33270;SDS011;53180;51.344;6.152;2022-09-09T09:24:34;1.08;;;0.50;;
33270;SDS011;53180;51.344;6.152;2022-09-09T09:27:18;2.45;;;0.80;;
33270;SDS011;53180;51.344;6.152;2022-09-09T09:30:00;0.68;;;0.43;;
33270;SDS011;53180;51.344;6.152;2022-09-09T09:32:54;1.95;;;0.70;;
33270;SDS011;53180;51.344;6.152;2022-09-09T09:35:27;0.82;;;0.60;;
33270;SDS011;53180;51.344;6.152;2022-09-09T09:37:55;0.73;;;0.50;;
33270;SDS011;53180;51.344;6.152;2022-09-09T09:40:50;3.38;;;0.60;;
33270;SDS011;53180;51.344;6.152;2022-09-09T09:43:21;2.85;;;0.77;;
33270;SDS011;53180;51.344;6.152;2022-09-09T09:45:56;3.13;;;0.80;;
33270;SDS011;53180;51.344;6.152;2022-09-09T09:48:43;1.55;;;0.70;;
33270;SDS011;53180;51.344;6.152;2022-09-09T09:51:13;2.08;;;0.80;;
33270;SDS011;53180;51.344;6.152;2022-09-09T09:53:50;1.83;;;0.60;;
33270;SDS011;53180;51.344;6.152;2022-09-09T09:56:26;1.40;;;0.70;;
33270;SDS011;53180;51.344;6.152;2022-09-09T09:58:55;1.63;;;0.70;;
33270;SDS011;53180;51.344;6.152;2022-09-09T10:01:27;3.55;;;0.82;;
33270;SDS011;53180;51.344;6.152;2022-09-09T10:04:00;0.90;;;0.57;;
33270;SDS011;53180;51.344;6.152;2022-09-09T10:06:31;0.45;;;0.45;;
33270;SDS011;53180;51.344;6.152;2022-09-09T10:09:00;2.35;;;0.73;;
33270;SDS011;53180;51.344;6.152;2022-09-09T10:11:38;1.75;;;0.65;;
33270;SDS011;53180;51.344;6.152;2022-09-09T10:14:15;1.85;;;0.63;;
33270;SDS011;53180;51.344;6.152;2022-09-09T10:16:52;1.83;;;0.70;;
33270;SDS011;53180;51.344;6.152;2022-09-09T10:19:33;2.03;;;0.70;;
33270;SDS011;53180;51.344;6.152;2022-09-09T10:28:18;1.52;;;0.63;;
33270;SDS011;53180;51.344;6.152;2022-09-09T10:31:07;1.65;;;0.75;;
33270;SDS011;53180;51.344;6.152;2022-09-09T10:33:49;1.08;;;0.52;;
33270;SDS011;53180;51.344;6.152;2022-09-09T10:36:21;2.40;;;0.80;;
33270;SDS011;53180;51.344;6.152;2022-09-09T10:38:53;1.65;;;0.68;;
33270;SDS011;53180;51.344;6.152;2022-09-09T10:41:35;2.45;;;0.63;;
33270;SDS011;53180;51.344;6.152;2022-09-09T10:44:15;3.78;;;0.60;;
33270;SDS011;53180;51.344;6.152;2022-09-09T10:46:58;2.75;;;0.80;;
33270;SDS011;53180;51.344;6.152;2022-09-09T10:50:03;4.32;;;1.00;;
33270;SDS011;53180;51.344;6.152;2022-09-09T10:55:33;4.50;;;1.02;;
33270;SDS011;53180;51.344;6.152;2022-09-09T10:58:08;1.52;;;0.82;;
33270;SDS011;53180;51.344;6.152;2022-09-09T11:00:44;4.75;;;0.90;;
33270;SDS011;53180;51.344;6.152;2022-09-09T11:03:23;3.10;;;0.82;;
33270;SDS011;53180;51.344;6.152;2022-09-09T11:05:59;1.83;;;0.98;;
33270;SDS011;53180;51.344;6.152;2022-09-09T11:08:32;2.95;;;0.93;;
33270;SDS011;53180;51.344;6.152;2022-09-09T11:11:06;2.25;;;0.93;;
33270;SDS011;53180;51.344;6.152;2022-09-09T11:13:44;3.03;;;0.85;;
33270;SDS011;53180;51.344;6.152;2022-09-09T11:16:22;2.30;;;1.00;;
33270;SDS011;53180;51.344;6.152;2022-09-09T11:18:58;6.18;;;1.20;;
33270;SDS011;53180;51.344;6.152;2022-09-09T11:21:34;3.88;;;0.85;;
33270;SDS011;53180;51.344;6.152;2022-09-09T11:24:06;1.17;;;0.85;;
33270;SDS011;53180;51.344;6.152;2022-09-09T11:26:41;1.55;;;0.63;;
33270;SDS011;53180;51.344;6.152;2022-09-09T11:29:22;1.23;;;0.70;;
33270;SDS011;53180;51.344;6.152;2022-09-09T11:32:20;2.72;;;0.70;;
33270;SDS011;53180;51.344;6.152;2022-09-09T11:35:20;6.38;;;0.80;;
33270;SDS011;53180;51.344;6.152;2022-09-09T11:38:16;1.40;;;0.77;;
33270;SDS011;53180;51.344;6.152;2022-09-09T11:40:58;0.85;;;0.75;;
33270;SDS011;53180;51.344;6.152;2022-09-09T11:43:30;0.95;;;0.70;;
33270;SDS011;53180;51.344;6.152;2022-09-09T11:46:02;2.60;;;0.90;;
33270;SDS011;53180;51.344;6.152;2022-09-09T11:48:32;1.17;;;0.80;;
33270;SDS011;53180;51.344;6.152;2022-09-09T11:53:49;0.70;;;0.70;;
33270;SDS011;53180;51.344;6.152;2022-09-09T11:56:26;1.52;;;0.77;;
33270;SDS011;53180;51.344;6.152;2022-09-09T11:58:59;1.17;;;0.88;;
33270;SDS011;53180;51.344;6.152;2022-09-09T12:01:36;2.70;;;1.00;;
33270;SDS011;53180;51.344;6.152;2022-09-09T12:07:23;1.50;;;1.15;;
33270;SDS011;53180;51.344;6.152;2022-09-09T12:10:04;2.67;;;1.05;;
33270;SDS011;53180;51.344;6.152;2022-09-09T12:12:48;3.03;;;1.58;;
33270;SDS011;53180;51.344;6.152;2022-09-09T12:15:18;2.00;;;1.40;;
33270;SDS011;53180;51.344;6.152;2022-09-09T12:17:55;2.20;;;1.42;;
33270;SDS011;53180;51.344;6.152;2022-09-09T12:20:31;5.13;;;1.40;;
33270;SDS011;53180;51.344;6.152;2022-09-09T12:23:17;1.23;;;1.13;;
33270;SDS011;53180;51.344;6.152;2022-09-09T12:25:59;0.95;;;0.90;;
33270;SDS011;53180;51.344;6.152;2022-09-09T12:28:45;3.53;;;1.08;;
33270;SDS011;53180;51.344;6.152;2022-09-09T12:31:24;1.98;;;1.02;;
33270;SDS011;53180;51.344;6.152;2022-09-09T12:34:02;1.00;;;1.00;;
33270;SDS011;53180;51.344;6.152;2022-09-09T12:36:38;2.65;;;1.60;;
33270;SDS011;53180;51.344;6.152;2022-09-09T12:42:01;1.83;;;1.25;;
33270;SDS011;53180;51.344;6.152;2022-09-09T12:44:30;4.18;;;1.27;;
33270;SDS011;53180;51.344;6.152;2022-09-09T12:47:00;2.15;;;1.25;;
33270;SDS011;53180;51.344;6.152;2022-09-09T12:49:31;2.30;;;1.27;;
33270;SDS011;53180;51.344;6.152;2022-09-09T12:52:05;2.22;;;1.30;;
33270;SDS011;53180;51.344;6.152;2022-09-09T12:54:42;2.70;;;1.17;;
33270;SDS011;53180;51.344;6.152;2022-09-09T12:57:15;2.42;;;1.45;;
33270;SDS011;53180;51.344;6.152;2022-09-09T12:59:44;2.17;;;1.15;;
33270;SDS011;53180;51.344;6.152;2022-09-09T13:02:19;1.55;;;1.10;;
33270;SDS011;53180;51.344;6.152;2022-09-09T13:04:50;2.13;;;1.00;;
33270;SDS011;53180;51.344;6.152;2022-09-09T13:07:18;1.13;;;0.90;;
33270;SDS011;53180;51.344;6.152;2022-09-09T13:09:48;6.00;;;1.35;;
33270;SDS011;53180;51.344;6.152;2022-09-09T13:12:19;1.95;;;0.90;;
33270;SDS011;53180;51.344;6.152;2022-09-09T13:14:50;3.53;;;1.33;;
33270;SDS011;53180;51.344;6.152;2022-09-09T13:17:22;1.15;;;0.82;;
33270;SDS011;53180;51.344;6.152;2022-09-09T13:19:55;1.73;;;1.25;;
33270;SDS011;53180;51.344;6.152;2022-09-09T13:22:27;2.08;;;0.77;;
33270;SDS011;53180;51.344;6.152;2022-09-09T13:25:00;4.18;;;1.08;;
33270;SDS011;53180;51.344;6.152;2022-09-09T13:27:34;1.15;;;0.80;;
33270;SDS011;53180;51.344;6.152;2022-09-09T13:30:19;0.90;;;0.57;;
33270;SDS011;53180;51.344;6.152;2022-09-09T13:33:04;1.95;;;0.80;;
33270;SDS011;53180;51.344;6.152;2022-09-09T13:35:49;1.13;;;0.60;;
33270;SDS011;53180;51.344;6.152;2022-09-09T13:38:21;1.20;;;0.68;;
33270;SDS011;53180;51.344;6.152;2022-09-09T13:40:56;1.50;;;0.70;;
33270;SDS011;53180;51.344;6.152;2022-09-09T13:43:29;0.68;;;0.40;;
33270;SDS011;53180;51.344;6.152;2022-09-09T13:46:03;0.50;;;0.40;;
33270;SDS011;53180;51.344;6.152;2022-09-09T13:48:33;0.50;;;0.50;;
33270;SDS011;53180;51.344;6.152;2022-09-09T13:51:03;0.60;;;0.38;;
33270;SDS011;53180;51.344;6.152;2022-09-09T13:53:32;2.08;;;0.80;;
33270;SDS011;53180;51.344;6.152;2022-09-09T13:56:02;1.40;;;0.63;;
33270;SDS011;53180;51.344;6.152;2022-09-09T13:58:32;1.67;;;0.90;;
33270;SDS011;53180;51.344;6.152;2022-09-09T14:01:01;1.63;;;0.90;;
33270;SDS011;53180;51.344;6.152;2022-09-09T14:03:29;2.58;;;0.88;;
33270;SDS011;53180;51.344;6.152;2022-09-09T14:05:58;0.85;;;0.80;;
33270;SDS011;53180;51.344;6.152;2022-09-09T14:08:27;0.50;;;0.50;;
33270;SDS011;53180;51.344;6.152;2022-09-09T14:11:03;1.90;;;0.65;;
33270;SDS011;53180;51.344;6.152;2022-09-09T14:13:33;0.80;;;0.80;;
33270;SDS011;53180;51.344;6.152;2022-09-09T14:16:03;1.15;;;0.70;;
33270;SDS011;53180;51.344;6.152;2022-09-09T14:18:32;0.70;;;0.70;;
33270;SDS011;53180;51.344;6.152;2022-09-09T14:21:01;1.10;;;0.82;;
33270;SDS011;53180;51.344;6.152;2022-09-09T14:23:29;1.92;;;1.02;;
33270;SDS011;53180;51.344;6.152;2022-09-09T14:25:58;1.90;;;1.05;;
33270;SDS011;53180;51.344;6.152;2022-09-09T14:28:27;1.17;;;1.00;;
33270;SDS011;53180;51.344;6.152;2022-09-09T14:31:17;2.80;;;1.05;;
33270;SDS011;53180;51.344;6.152;2022-09-09T14:33:45;3.30;;;1.17;;
33270;SDS011;53180;51.344;6.152;2022-09-09T14:36:14;1.73;;;1.27;;
33270;SDS011;53180;51.344;6.152;2022-09-09T14:38:42;1.35;;;1.10;;
33270;SDS011;53180;51.344;6.152;2022-09-09T14:41:11;2.65;;;1.60;;
33270;SDS011;53180;51.344;6.152;2022-09-09T14:43:43;1.85;;;1.45;;
33270;SDS011;53180;51.344;6.152;2022-09-09T14:46:13;1.70;;;1.60;;
33270;SDS011;53180;51.344;6.152;2022-09-09T14:48:44;1.42;;;1.20;;
33270;SDS011;53180;51.344;6.152;2022-09-09T14:51:15;1.35;;;1.25;;
33270;SDS011;53180;51.344;6.152;2022-09-09T14:53:50;1.20;;;1.10;;
33270;SDS011;53180;51.344;6.152;2022-09-09T14:56:21;2.00;;;1.38;;
33270;SDS011;53180;51.344;6.152;2022-09-09T14:58:52;3.47;;;1.58;;
33270;SDS011;53180;51.344;6.152;2022-09-09T15:01:22;3.50;;;1.58;;
33270;SDS011;53180;51.344;6.152;2022-09-09T15:03:55;2.55;;;1.63;;
33270;SDS011;53180;51.344;6.152;2022-09-09T15:06:26;1.35;;;1.08;;
33270;SDS011;53180;51.344;6.152;2022-09-09T15:08:57;2.75;;;1.63;;
33270;SDS011;53180;51.344;6.152;2022-09-09T15:11:27;1.30;;;1.20;;
33270;SDS011;53180;51.344;6.152;2022-09-09T15:13:58;3.10;;;1.75;;
33270;SDS011;53180;51.344;6.152;2022-09-09T15:16:27;1.90;;;1.23;;
33270;SDS011;53180;51.344;6.152;2022-09-09T15:18:58;2.17;;;1.20;;
33270;SDS011;53180;51.344;6.152;2022-09-09T15:21:29;1.05;;;0.95;;
33270;SDS011;53180;51.344;6.152;2022-09-09T15:24:00;1.55;;;1.25;;
33270;SDS011;53180;51.344;6.152;2022-09-09T15:26:30;1.35;;;1.10;;
33270;SDS011;53180;51.344;6.152;2022-09-09T15:28:59;2.08;;;1.10;;
33270;SDS011;53180;51.344;6.152;2022-09-09T15:31:28;1.40;;;1.20;;
33270;SDS011;53180;51.344;6.152;2022-09-09T15:34:00;2.78;;;1.25;;
33270;SDS011;53180;51.344;6.152;2022-09-09T15:36:30;1.27;;;1.10;;
33270;SDS011;53180;51.344;6.152;2022-09-09T15:39:00;0.73;;;0.67;;
33270;SDS011;53180;51.344;6.152;2022-09-09T15:41:31;1.60;;;1.10;;
33270;SDS011;53180;51.344;6.152;2022-09-09T15:44:01;2.42;;;1.10;;
33270;SDS011;53180;51.344;6.152;2022-09-09T15:46:31;2.00;;;1.10;;
33270;SDS011;53180;51.344;6.152;2022-09-09T15:49:05;1.40;;;0.93;;
33270;SDS011;53180;51.344;6.152;2022-09-09T15:51:37;2.67;;;1.35;;
33270;SDS011;53180;51.344;6.152;2022-09-09T15:54:09;2.33;;;1.60;;
33270;SDS011;53180;51.344;6.152;2022-09-09T15:56:41;1.85;;;1.08;;
33270;SDS011;53180;51.344;6.152;2022-09-09T15:59:09;1.58;;;1.00;;
33270;SDS011;53180;51.344;6.152;2022-09-09T16:01:38;1.58;;;0.80;;
33270;SDS011;53180;51.344;6.152;2022-09-09T16:04:10;1.80;;;0.90;;